sensor_id;sensor_type;location;lat;lon;timestamp;temperature;humidity
15259;DHT22;34462;51.368;12.364;2023-11-21T00:01:22;7.00;99.90
15259;DHT22;34462;51.368;12.364;2023-11-21T00:03:52;7.00;99.90
15259;DHT22;34462;51.368;12.364;2023-11-21T00:06:21;7.00;99.90
15259;DHT22;34462;51.368;12.364;2023-11-21T00:08:49;7.00;99.90
15259;DHT22;34462;51.368;12.364;2023-11-21T00:11:17;6.90;99.90
15259;DHT22;34462;51.368;12.364;2023-11-21T00:13:45;6.90;99.90
15259;DHT22;34462;51.368;12.364;2023-11-21T00:16:16;6.90;99.90
15259;DHT22;34462;51.368;12.364;2023-11-21T00:18:45;6.80;99.90
15259;DHT22;34462;51.368;12.364;2023-11-21T00:21:15;6.80;99.90
15259;DHT22;34462;51.368;12.364;2023-11-21T00:23:43;6.80;99.90
15259;DHT22;34462;51.368;12.364;2023-11-21T00:26:11;6.80;99.90
15259;DHT22;34462;51.368;12.364;2023-11-21T00:28:41;6.80;99.90
15259;DHT22;34462;51.368;12.364;2023-11-21T00:31:09;6.80;99.90
15259;DHT22;34462;51.368;12.364;2023-11-21T00:33:37;6.80;99.90
15259;DHT22;34462;51.368;12.364;2023-11-21T00:36:06;6.80;99.90
15259;DHT22;34462;51.368;12.364;2023-11-21T00:38:37;6.80;99.90
15259;DHT22;34462;51.368;12.364;2023-11-21T00:41:07;6.80;99.90
15259;DHT22;34462;51.368;12.364;2023-11-21T00:43:35;6.80;99.90
15259;DHT22;34462;51.368;12.364;2023-11-21T00:46:04;6.80;99.90
15259;DHT22;34462;51.368;12.364;2023-11-21T00:48:34;6.80;99.90
15259;DHT22;34462;51.368;12.364;2023-11-21T00:51:02;6.70;99.90
15259;DHT22;34462;51.368;12.364;2023-11-21T00:53:30;6.70;99.90
15259;DHT22;34462;51.368;12.364;2023-11-21T00:56:00;6.70;99.90
15259;DHT22;34462;51.368;12.364;2023-11-21T00:58:29;6.70;99.90
15259;DHT22;34462;51.368;12.364;2023-11-21T01:00:58;6.70;99.90
15259;DHT22;34462;51.368;12.364;2023-11-21T01:03:26;6.70;99.90
15259;DHT22;34462;51.368;12.364;2023-11-21T01:05:54;6.80;99.90
15259;DHT22;34462;51.368;12.364;2023-11-21T01:08:22;6.80;99.90
15259;DHT22;34462;51.368;12.364;2023-11-21T01:10:51;6.70;99.90
15259;DHT22;34462;51.368;12.364;2023-11-21T01:13:21;6.70;99.90
15259;DHT22;34462;51.368;12.364;2023-11-21T01:15:49;6.70;99.90
15259;DHT22;34462;51.368;12.364;2023-11-21T01:18:17;6.70;99.90
15259;DHT22;34462;51.368;12.364;2023-11-21T01:20:47;6.70;99.90
15259;DHT22;34462;51.368;12.364;2023-11-21T01:23:15;6.80;99.90
15259;DHT22;34462;51.368;12.364;2023-11-21T01:25:44;6.90;99.90
15259;DHT22;34462;51.368;12.364;2023-11-21T01:28:12;6.90;99.90
15259;DHT22;34462;51.368;12.364;2023-11-21T01:30:41;7.00;99.90
15259;DHT22;34462;51.368;12.364;2023-11-21T01:33:11;7.10;99.90
15259;DHT22;34462;51.368;12.364;2023-11-21T01:35:43;7.20;99.90
15259;DHT22;34462;51.368;12.364;2023-11-21T01:38:12;7.20;99.90
15259;DHT22;34462;51.368;12.364;2023-11-21T01:40:41;7.30;99.90
15259;DHT22;34462;51.368;12.364;2023-11-21T01:43:10;7.30;99.90
15259;DHT22;34462;51.368;12.364;2023-11-21T01:45:38;7.30;99.90
15259;DHT22;34462;51.368;12.364;2023-11-21T01:48:08;7.30;99.90
15259;DHT22;34462;51.368;12.364;2023-11-21T01:50:37;7.40;99.90
15259;DHT22;34462;51.368;12.364;2023-11-21T01:53:05;7.50;99.90
15259;DHT22;34462;51.368;12.364;2023-11-21T01:55:34;7.50;99.90
15259;DHT22;34462;51.368;12.364;2023-11-21T01:58:03;7.50;99.90
15259;DHT22;34462;51.368;12.364;2023-11-21T02:00:31;7.50;99.90
15259;DHT22;34462;51.368;12.364;2023-11-21T02:03:00;7.50;99.90
15259;DHT22;34462;51.368;12.364;2023-11-21T02:05:30;7.70;99.90
15259;DHT22;34462;51.368;12.364;2023-11-21T02:07:58;7.60;99.90
15259;DHT22;34462;51.368;12.364;2023-11-21T02:10:27;7.60;99.90
15259;DHT22;34462;51.368;12.364;2023-11-21T02:12:57;7.60;99.90
15259;DHT22;34462;51.368;12.364;2023-11-21T02:15:28;7.70;99.90
15259;DHT22;34462;51.368;12.364;2023-11-21T02:17:57;7.70;99.90
15259;DHT22;34462;51.368;12.364;2023-11-21T02:20:26;7.70;99.90
15259;DHT22;34462;51.368;12.364;2023-11-21T02:22:57;7.70;99.90
15259;DHT22;34462;51.368;12.364;2023-11-21T02:25:28;7.70;99.90
15259;DHT22;34462;51.368;12.364;2023-11-21T02:27:59;7.70;99.90
15259;DHT22;34462;51.368;12.364;2023-11-21T02:30:28;7.70;99.90
15259;DHT22;34462;51.368;12.364;2023-11-21T02:32:58;7.70;99.90
15259;DHT22;34462;51.368;12.364;2023-11-21T02:35:27;7.80;99.90
15259;DHT22;34462;51.368;12.364;2023-11-21T02:37:59;7.80;99.90
15259;DHT22;34462;51.368;12.364;2023-11-21T02:40:27;7.80;99.90
15259;DHT22;34462;51.368;12.364;2023-11-21T02:42:57;7.80;99.90
15259;DHT22;34462;51.368;12.364;2023-11-21T02:45:26;7.80;99.90
15259;DHT22;34462;51.368;12.364;2023-11-21T02:47:54;7.70;99.90
15259;DHT22;34462;51.368;12.364;2023-11-21T02:50:24;7.70;99.90
15259;DHT22;34462;51.368;12.364;2023-11-21T02:52:52;7.60;99.90
15259;DHT22;34462;51.368;12.364;2023-11-21T02:55:21;7.50;99.90
15259;DHT22;34462;51.368;12.364;2023-11-21T02:57:51;7.40;99.90
15259;DHT22;34462;51.368;12.364;2023-11-21T03:00:20;7.30;99.90
15259;DHT22;34462;51.368;12.364;2023-11-21T03:02:51;7.20;99.90
15259;DHT22;34462;51.368;12.364;2023-11-21T03:05:20;7.10;99.90
15259;DHT22;34462;51.368;12.364;2023-11-21T03:07:48;7.00;99.90
15259;DHT22;34462;51.368;12.364;2023-11-21T03:10:16;7.00;99.90
15259;DHT22;34462;51.368;12.364;2023-11-21T03:12:47;6.90;99.90
15259;DHT22;34462;51.368;12.364;2023-11-21T03:15:15;6.90;99.90
15259;DHT22;34462;51.368;12.364;2023-11-21T03:17:44;7.00;99.90
15259;DHT22;34462;51.368;12.364;2023-11-21T03:20:12;7.00;99.90
15259;DHT22;34462;51.368;12.364;2023-11-21T03:22:40;7.10;99.90
15259;DHT22;34462;51.368;12.364;2023-11-21T03:25:09;7.10;99.90
15259;DHT22;34462;51.368;12.364;2023-11-21T03:27:38;7.20;99.90
15259;DHT22;34462;51.368;12.364;2023-11-21T03:30:09;7.20;99.90
15259;DHT22;34462;51.368;12.364;2023-11-21T03:32:38;7.20;99.90
15259;DHT22;34462;51.368;12.364;2023-11-21T03:35:07;7.30;99.90
15259;DHT22;34462;51.368;12.364;2023-11-21T03:37:36;7.30;99.90
15259;DHT22;34462;51.368;12.364;2023-11-21T03:40:08;7.40;99.90
15259;DHT22;34462;51.368;12.364;2023-11-21T03:42:37;7.40;99.90
15259;DHT22;34462;51.368;12.364;2023-11-21T03:45:08;7.40;99.90
15259;DHT22;34462;51.368;12.364;2023-11-21T03:47:36;7.40;99.90
15259;DHT22;34462;51.368;12.364;2023-11-21T03:50:05;7.50;99.90
15259;DHT22;34462;51.368;12.364;2023-11-21T03:52:35;7.50;99.90
15259;DHT22;34462;51.368;12.364;2023-11-21T03:55:04;7.50;99.90
15259;DHT22;34462;51.368;12.364;2023-11-21T03:57:32;7.50;99.90
15259;DHT22;34462;51.368;12.364;2023-11-21T04:00:00;7.50;99.90
15259;DHT22;34462;51.368;12.364;2023-11-21T04:02:32;7.50;99.90
15259;DHT22;34462;51.368;12.364;2023-11-21T04:05:00;7.50;99.90
15259;DHT22;34462;51.368;12.364;2023-11-21T04:07:28;7.50;99.90
15259;DHT22;34462;51.368;12.364;2023-11-21T04:09:57;7.50;99.90
15259;DHT22;34462;51.368;12.364;2023-11-21T04:12:25;7.50;99.90
15259;DHT22;34462;51.368;12.364;2023-11-21T04:14:53;7.50;99.90
15259;DHT22;34462;51.368;12.364;2023-11-21T04:17:21;7.60;99.90
15259;DHT22;34462;51.368;12.364;2023-11-21T04:19:51;7.60;99.90
15259;DHT22;34462;51.368;12.364;2023-11-21T04:22:19;7.60;99.90
15259;DHT22;34462;51.368;12.364;2023-11-21T04:24:47;7.60;99.90
15259;DHT22;34462;51.368;12.364;2023-11-21T04:27:17;7.60;99.90
15259;DHT22;34462;51.368;12.364;2023-11-21T04:29:45;7.70;99.90
15259;DHT22;34462;51.368;12.364;2023-11-21T04:32:13;7.70;99.90
15259;DHT22;34462;51.368;12.364;2023-11-21T04:34:42;7.70;99.90
15259;DHT22;34462;51.368;12.364;2023-11-21T04:37:11;7.70;99.90
15259;DHT22;34462;51.368;12.364;2023-11-21T04:39:40;7.80;99.90
15259;DHT22;34462;51.368;12.364;2023-11-21T04:42:08;7.80;99.90
15259;DHT22;34462;51.368;12.364;2023-11-21T04:44:36;7.80;99.90
15259;DHT22;34462;51.368;12.364;2023-11-21T04:47:04;7.80;99.90
15259;DHT22;34462;51.368;12.364;2023-11-21T04:49:33;7.80;99.90
15259;DHT22;34462;51.368;12.364;2023-11-21T04:52:01;7.80;99.90
15259;DHT22;34462;51.368;12.364;2023-11-21T04:54:32;7.90;99.90
15259;DHT22;34462;51.368;12.364;2023-11-21T04:57:01;7.90;99.90
15259;DHT22;34462;51.368;12.364;2023-11-21T04:59:30;7.90;99.90
15259;DHT22;34462;51.368;12.364;2023-11-21T05:01:58;7.90;99.90
15259;DHT22;34462;51.368;12.364;2023-11-21T05:04:28;7.90;99.90
15259;DHT22;34462;51.368;12.364;2023-11-21T05:06:56;7.90;99.90
15259;DHT22;34462;51.368;12.364;2023-11-21T05:09:24;7.90;99.90
15259;DHT22;34462;51.368;12.364;2023-11-21T05:11:54;7.90;99.90
15259;DHT22;34462;51.368;12.364;2023-11-21T05:14:22;7.90;99.90
15259;DHT22;34462;51.368;12.364;2023-11-21T05:16:51;7.90;99.90
15259;DHT22;34462;51.368;12.364;2023-11-21T05:19:19;8.00;99.90
15259;DHT22;34462;51.368;12.364;2023-11-21T05:21:48;8.00;99.90
15259;DHT22;34462;51.368;12.364;2023-11-21T05:24:16;7.90;99.90
15259;DHT22;34462;51.368;12.364;2023-11-21T05:26:44;7.90;99.90
15259;DHT22;34462;51.368;12.364;2023-11-21T05:29:14;8.00;99.90
15259;DHT22;34462;51.368;12.364;2023-11-21T05:31:42;8.00;99.90
15259;DHT22;34462;51.368;12.364;2023-11-21T05:34:10;7.90;99.90
15259;DHT22;34462;51.368;12.364;2023-11-21T05:36:43;7.90;99.90
15259;DHT22;34462;51.368;12.364;2023-11-21T05:39:12;7.90;99.90
15259;DHT22;34462;51.368;12.364;2023-11-21T05:41:43;7.90;99.90
15259;DHT22;34462;51.368;12.364;2023-11-21T05:44:16;7.90;99.90
15259;DHT22;34462;51.368;12.364;2023-11-21T05:46:45;7.90;99.90
15259;DHT22;34462;51.368;12.364;2023-11-21T05:49:13;7.80;99.90
15259;DHT22;34462;51.368;12.364;2023-11-21T05:51:42;7.80;99.90
15259;DHT22;34462;51.368;12.364;2023-11-21T05:54:12;7.80;99.90
15259;DHT22;34462;51.368;12.364;2023-11-21T05:56:40;7.80;99.90
15259;DHT22;34462;51.368;12.364;2023-11-21T05:59:08;7.80;99.90
15259;DHT22;34462;51.368;12.364;2023-11-21T06:01:38;7.80;99.90
15259;DHT22;34462;51.368;12.364;2023-11-21T06:04:06;7.80;99.90
15259;DHT22;34462;51.368;12.364;2023-11-21T06:06:35;7.80;99.90
15259;DHT22;34462;51.368;12.364;2023-11-21T06:09:03;7.80;99.90
15259;DHT22;34462;51.368;12.364;2023-11-21T06:11:32;7.80;99.90
15259;DHT22;34462;51.368;12.364;2023-11-21T06:14:03;7.70;99.90
15259;DHT22;34462;51.368;12.364;2023-11-21T06:16:34;7.70;99.90
15259;DHT22;34462;51.368;12.364;2023-11-21T06:19:06;7.70;99.90
15259;DHT22;34462;51.368;12.364;2023-11-21T06:21:38;7.70;99.90
15259;DHT22;34462;51.368;12.364;2023-11-21T06:24:06;7.70;99.90
15259;DHT22;34462;51.368;12.364;2023-11-21T06:26:34;7.70;99.90
15259;DHT22;34462;51.368;12.364;2023-11-21T06:29:03;7.80;99.90
15259;DHT22;34462;51.368;12.364;2023-11-21T06:31:31;7.70;99.90
15259;DHT22;34462;51.368;12.364;2023-11-21T06:34:00;7.70;99.90
15259;DHT22;34462;51.368;12.364;2023-11-21T06:36:29;7.70;99.90
15259;DHT22;34462;51.368;12.364;2023-11-21T06:38:57;7.70;99.90
15259;DHT22;34462;51.368;12.364;2023-11-21T06:41:25;7.70;99.90
15259;DHT22;34462;51.368;12.364;2023-11-21T06:43:54;7.70;99.90
15259;DHT22;34462;51.368;12.364;2023-11-21T06:46:22;7.60;99.90
15259;DHT22;34462;51.368;12.364;2023-11-21T06:48:50;7.70;99.90
15259;DHT22;34462;51.368;12.364;2023-11-21T06:51:19;7.70;99.90
15259;DHT22;34462;51.368;12.364;2023-11-21T06:53:48;7.70;99.90
15259;DHT22;34462;51.368;12.364;2023-11-21T06:56:17;7.70;99.90
15259;DHT22;34462;51.368;12.364;2023-11-21T06:58:45;7.70;99.90
15259;DHT22;34462;51.368;12.364;2023-11-21T07:01:14;7.70;99.90
15259;DHT22;34462;51.368;12.364;2023-11-21T07:03:42;7.70;99.90
15259;DHT22;34462;51.368;12.364;2023-11-21T07:06:11;7.70;99.90
15259;DHT22;34462;51.368;12.364;2023-11-21T07:08:41;7.70;99.90
15259;DHT22;34462;51.368;12.364;2023-11-21T07:11:10;7.70;99.90
15259;DHT22;34462;51.368;12.364;2023-11-21T07:13:38;7.70;99.90
15259;DHT22;34462;51.368;12.364;2023-11-21T07:16:07;7.70;99.90
15259;DHT22;34462;51.368;12.364;2023-11-21T07:18:37;7.70;99.90
15259;DHT22;34462;51.368;12.364;2023-11-21T07:21:05;7.80;99.90
15259;DHT22;34462;51.368;12.364;2023-11-21T07:23:35;7.80;99.90
15259;DHT22;34462;51.368;12.364;2023-11-21T07:26:03;7.80;99.90
15259;DHT22;34462;51.368;12.364;2023-11-21T07:28:37;7.80;99.90
15259;DHT22;34462;51.368;12.364;2023-11-21T07:31:05;7.90;99.90
15259;DHT22;34462;51.368;12.364;2023-11-21T07:33:33;7.90;99.90
15259;DHT22;34462;51.368;12.364;2023-11-21T07:36:01;7.90;99.90
15259;DHT22;34462;51.368;12.364;2023-11-21T07:38:30;8.00;99.90
15259;DHT22;34462;51.368;12.364;2023-11-21T07:41:00;8.00;99.90
15259;DHT22;34462;51.368;12.364;2023-11-21T07:43:28;8.00;99.90
15259;DHT22;34462;51.368;12.364;2023-11-21T07:46:03;8.10;99.90
15259;DHT22;34462;51.368;12.364;2023-11-21T07:48:32;8.10;99.90
15259;DHT22;34462;51.368;12.364;2023-11-21T07:51:02;8.20;99.90
15259;DHT22;34462;51.368;12.364;2023-11-21T07:53:31;8.20;99.90
15259;DHT22;34462;51.368;12.364;2023-11-21T07:56:03;8.20;99.90
15259;DHT22;34462;51.368;12.364;2023-11-21T07:58:32;8.20;99.90
15259;DHT22;34462;51.368;12.364;2023-11-21T08:01:00;8.30;99.90
15259;DHT22;34462;51.368;12.364;2023-11-21T08:03:30;8.20;99.90
15259;DHT22;34462;51.368;12.364;2023-11-21T08:05:59;8.20;99.90
15259;DHT22;34462;51.368;12.364;2023-11-21T08:08:29;8.20;99.90
15259;DHT22;34462;51.368;12.364;2023-11-21T08:10:58;8.20;99.90
15259;DHT22;34462;51.368;12.364;2023-11-21T08:13:29;8.10;99.90
15259;DHT22;34462;51.368;12.364;2023-11-21T08:15:58;8.10;99.90
15259;DHT22;34462;51.368;12.364;2023-11-21T08:18:31;8.20;99.90
15259;DHT22;34462;51.368;12.364;2023-11-21T08:20:59;8.10;99.90
15259;DHT22;34462;51.368;12.364;2023-11-21T08:23:27;8.20;99.90
15259;DHT22;34462;51.368;12.364;2023-11-21T08:25:56;8.20;99.90
15259;DHT22;34462;51.368;12.364;2023-11-21T08:28:24;8.20;99.90
15259;DHT22;34462;51.368;12.364;2023-11-21T08:30:53;8.20;99.90
15259;DHT22;34462;51.368;12.364;2023-11-21T08:33:21;8.10;99.90
15259;DHT22;34462;51.368;12.364;2023-11-21T08:35:51;8.10;99.90
15259;DHT22;34462;51.368;12.364;2023-11-21T08:38:19;8.20;99.90
15259;DHT22;34462;51.368;12.364;2023-11-21T08:40:48;8.10;99.90
15259;DHT22;34462;51.368;12.364;2023-11-21T08:43:16;8.10;99.90
15259;DHT22;34462;51.368;12.364;2023-11-21T08:45:46;8.20;99.90
15259;DHT22;34462;51.368;12.364;2023-11-21T08:48:14;8.00;99.90
15259;DHT22;34462;51.368;12.364;2023-11-21T08:50:43;8.10;99.90
15259;DHT22;34462;51.368;12.364;2023-11-21T08:53:12;8.10;99.90
15259;DHT22;34462;51.368;12.364;2023-11-21T08:55:40;8.10;99.90
15259;DHT22;34462;51.368;12.364;2023-11-21T08:58:10;8.10;99.90
15259;DHT22;34462;51.368;12.364;2023-11-21T09:00:40;8.00;99.90
15259;DHT22;34462;51.368;12.364;2023-11-21T09:03:08;8.10;99.90
15259;DHT22;34462;51.368;12.364;2023-11-21T09:05:38;8.20;99.90
15259;DHT22;34462;51.368;12.364;2023-11-21T09:08:06;8.20;99.90
15259;DHT22;34462;51.368;12.364;2023-11-21T09:10:36;8.20;99.90
15259;DHT22;34462;51.368;12.364;2023-11-21T09:13:04;8.00;99.90
15259;DHT22;34462;51.368;12.364;2023-11-21T09:15:32;8.00;99.90
15259;DHT22;34462;51.368;12.364;2023-11-21T09:18:00;7.90;99.90
15259;DHT22;34462;51.368;12.364;2023-11-21T09:20:29;8.00;99.90
15259;DHT22;34462;51.368;12.364;2023-11-21T09:22:57;8.10;99.90
15259;DHT22;34462;51.368;12.364;2023-11-21T09:25:25;8.10;99.90
15259;DHT22;34462;51.368;12.364;2023-11-21T09:27:57;8.10;99.90
15259;DHT22;34462;51.368;12.364;2023-11-21T09:30:25;8.00;99.90
15259;DHT22;34462;51.368;12.364;2023-11-21T09:32:53;8.10;99.90
15259;DHT22;34462;51.368;12.364;2023-11-21T09:35:21;8.20;99.90
15259;DHT22;34462;51.368;12.364;2023-11-21T09:37:50;8.20;99.90
15259;DHT22;34462;51.368;12.364;2023-11-21T09:40:21;8.20;99.90
15259;DHT22;34462;51.368;12.364;2023-11-21T09:42:54;8.10;99.90
15259;DHT22;34462;51.368;12.364;2023-11-21T09:45:26;8.20;99.90
15259;DHT22;34462;51.368;12.364;2023-11-21T09:47:56;8.20;99.90
15259;DHT22;34462;51.368;12.364;2023-11-21T09:50:25;8.20;99.90
15259;DHT22;34462;51.368;12.364;2023-11-21T09:52:57;8.10;99.90
15259;DHT22;34462;51.368;12.364;2023-11-21T09:55:34;8.10;99.90
15259;DHT22;34462;51.368;12.364;2023-11-21T09:58:05;8.10;99.90
15259;DHT22;34462;51.368;12.364;2023-11-21T10:00:35;8.00;99.90
15259;DHT22;34462;51.368;12.364;2023-11-21T10:03:03;8.00;99.90
15259;DHT22;34462;51.368;12.364;2023-11-21T10:05:31;8.00;99.90
15259;DHT22;34462;51.368;12.364;2023-11-21T10:08:01;7.90;99.90
15259;DHT22;34462;51.368;12.364;2023-11-21T10:10:32;7.90;99.90
15259;DHT22;34462;51.368;12.364;2023-11-21T10:13:03;7.90;99.90
15259;DHT22;34462;51.368;12.364;2023-11-21T10:15:34;7.80;99.90
15259;DHT22;34462;51.368;12.364;2023-11-21T10:18:03;7.80;99.90
15259;DHT22;34462;51.368;12.364;2023-11-21T10:20:33;7.70;99.90
15259;DHT22;34462;51.368;12.364;2023-11-21T10:23:04;7.70;99.90
15259;DHT22;34462;51.368;12.364;2023-11-21T10:25:34;7.70;99.90
15259;DHT22;34462;51.368;12.364;2023-11-21T10:28:05;7.70;99.90
15259;DHT22;34462;51.368;12.364;2023-11-21T10:30:34;7.70;99.90
15259;DHT22;34462;51.368;12.364;2023-11-21T10:33:04;7.80;99.90
15259;DHT22;34462;51.368;12.364;2023-11-21T10:35:43;7.70;99.90
15259;DHT22;34462;51.368;12.364;2023-11-21T10:38:15;7.80;99.90
15259;DHT22;34462;51.368;12.364;2023-11-21T10:40:44;7.80;99.90
15259;DHT22;34462;51.368;12.364;2023-11-21T10:43:15;7.90;99.90
15259;DHT22;34462;51.368;12.364;2023-11-21T10:45:44;7.90;99.90
15259;DHT22;34462;51.368;12.364;2023-11-21T10:48:14;7.90;99.90
15259;DHT22;34462;51.368;12.364;2023-11-21T10:50:45;7.80;99.90
15259;DHT22;34462;51.368;12.364;2023-11-21T10:53:14;7.90;99.90
15259;DHT22;34462;51.368;12.364;2023-11-21T10:55:42;7.90;99.90
15259;DHT22;34462;51.368;12.364;2023-11-21T10:58:14;7.90;99.90
15259;DHT22;34462;51.368;12.364;2023-11-21T11:00:44;7.80;99.90
15259;DHT22;34462;51.368;12.364;2023-11-21T11:03:13;7.70;99.90
15259;DHT22;34462;51.368;12.364;2023-11-21T11:05:44;7.60;99.90
15259;DHT22;34462;51.368;12.364;2023-11-21T11:08:21;7.60;99.90
15259;DHT22;34462;51.368;12.364;2023-11-21T11:10:54;7.60;99.90
15259;DHT22;34462;51.368;12.364;2023-11-21T11:13:26;7.60;99.90
15259;DHT22;34462;51.368;12.364;2023-11-21T11:15:58;7.70;99.90
15259;DHT22;34462;51.368;12.364;2023-11-21T11:18:28;7.70;99.90
15259;DHT22;34462;51.368;12.364;2023-11-21T11:21:07;7.70;99.90
15259;DHT22;34462;51.368;12.364;2023-11-21T11:23:51;7.80;99.90
15259;DHT22;34462;51.368;12.364;2023-11-21T11:26:42;7.80;99.90
15259;DHT22;34462;51.368;12.364;2023-11-21T11:29:26;7.80;99.90
15259;DHT22;34462;51.368;12.364;2023-11-21T11:32:09;7.80;99.90
15259;DHT22;34462;51.368;12.364;2023-11-21T11:34:48;7.70;99.90
15259;DHT22;34462;51.368;12.364;2023-11-21T11:37:27;7.80;99.90
15259;DHT22;34462;51.368;12.364;2023-11-21T11:39:56;7.70;99.90
15259;DHT22;34462;51.368;12.364;2023-11-21T11:42:24;7.60;99.90
15259;DHT22;34462;51.368;12.364;2023-11-21T11:44:58;7.60;99.90
15259;DHT22;34462;51.368;12.364;2023-11-21T11:47:27;7.60;99.90
15259;DHT22;34462;51.368;12.364;2023-11-21T11:50:03;7.50;99.90
15259;DHT22;34462;51.368;12.364;2023-11-21T11:52:41;7.50;99.90
15259;DHT22;34462;51.368;12.364;2023-11-21T11:55:11;7.40;99.90
15259;DHT22;34462;51.368;12.364;2023-11-21T11:57:42;7.30;99.90
15259;DHT22;34462;51.368;12.364;2023-11-21T12:00:17;7.20;99.90
15259;DHT22;34462;51.368;12.364;2023-11-21T12:02:48;7.20;99.90
15259;DHT22;34462;51.368;12.364;2023-11-21T12:05:19;7.20;99.90
15259;DHT22;34462;51.368;12.364;2023-11-21T12:07:51;7.10;99.90
15259;DHT22;34462;51.368;12.364;2023-11-21T12:10:22;7.00;99.90
15259;DHT22;34462;51.368;12.364;2023-11-21T12:12:55;7.00;99.90
15259;DHT22;34462;51.368;12.364;2023-11-21T12:15:26;7.00;99.90
15259;DHT22;34462;51.368;12.364;2023-11-21T12:17:56;6.90;99.90
15259;DHT22;34462;51.368;12.364;2023-11-21T12:20:26;6.90;99.90
15259;DHT22;34462;51.368;12.364;2023-11-21T12:22:57;6.90;99.90
15259;DHT22;34462;51.368;12.364;2023-11-21T12:25:28;6.80;99.90
15259;DHT22;34462;51.368;12.364;2023-11-21T12:27:59;6.80;99.90
15259;DHT22;34462;51.368;12.364;2023-11-21T12:30:34;6.80;99.90
15259;DHT22;34462;51.368;12.364;2023-11-21T12:33:05;6.80;99.90
15259;DHT22;34462;51.368;12.364;2023-11-21T12:35:36;6.80;99.90
15259;DHT22;34462;51.368;12.364;2023-11-21T12:38:05;6.70;99.90
15259;DHT22;34462;51.368;12.364;2023-11-21T12:40:35;6.50;99.90
15259;DHT22;34462;51.368;12.364;2023-11-21T12:43:04;6.50;99.90
15259;DHT22;34462;51.368;12.364;2023-11-21T12:45:37;6.40;99.90
15259;DHT22;34462;51.368;12.364;2023-11-21T12:48:06;6.30;99.90
15259;DHT22;34462;51.368;12.364;2023-11-21T12:50:36;6.20;99.90
15259;DHT22;34462;51.368;12.364;2023-11-21T12:53:07;6.10;99.90
15259;DHT22;34462;51.368;12.364;2023-11-21T12:55:37;6.10;99.90
15259;DHT22;34462;51.368;12.364;2023-11-21T12:58:07;5.90;99.90
15259;DHT22;34462;51.368;12.364;2023-11-21T13:00:42;5.90;99.90
15259;DHT22;34462;51.368;12.364;2023-11-21T13:03:13;5.90;99.90
15259;DHT22;34462;51.368;12.364;2023-11-21T13:05:46;5.90;99.90
15259;DHT22;34462;51.368;12.364;2023-11-21T13:08:18;5.90;99.90
15259;DHT22;34462;51.368;12.364;2023-11-21T13:10:50;6.00;99.90
15259;DHT22;34462;51.368;12.364;2023-11-21T13:13:21;6.10;99.90
15259;DHT22;34462;51.368;12.364;2023-11-21T13:15:53;6.00;99.90
15259;DHT22;34462;51.368;12.364;2023-11-21T13:18:24;6.00;99.90
15259;DHT22;34462;51.368;12.364;2023-11-21T13:20:54;6.10;99.90
15259;DHT22;34462;51.368;12.364;2023-11-21T13:23:23;6.00;99.90
15259;DHT22;34462;51.368;12.364;2023-11-21T13:25:52;6.00;99.90
15259;DHT22;34462;51.368;12.364;2023-11-21T13:28:31;6.10;99.90
15259;DHT22;34462;51.368;12.364;2023-11-21T13:31:04;6.10;99.90
15259;DHT22;34462;51.368;12.364;2023-11-21T13:33:48;6.20;99.90
15259;DHT22;34462;51.368;12.364;2023-11-21T13:36:22;6.30;99.90
15259;DHT22;34462;51.368;12.364;2023-11-21T13:38:55;6.20;99.90
15259;DHT22;34462;51.368;12.364;2023-11-21T13:41:25;6.30;99.90
15259;DHT22;34462;51.368;12.364;2023-11-21T13:43:58;6.30;99.90
15259;DHT22;34462;51.368;12.364;2023-11-21T13:46:37;6.30;99.90
15259;DHT22;34462;51.368;12.364;2023-11-21T13:49:06;6.40;99.90
15259;DHT22;34462;51.368;12.364;2023-11-21T13:51:37;6.20;99.90
15259;DHT22;34462;51.368;12.364;2023-11-21T13:54:10;6.30;99.90
15259;DHT22;34462;51.368;12.364;2023-11-21T13:56:38;6.30;99.90
15259;DHT22;34462;51.368;12.364;2023-11-21T13:59:07;6.30;99.90
15259;DHT22;34462;51.368;12.364;2023-11-21T14:01:50;6.30;99.90
15259;DHT22;34462;51.368;12.364;2023-11-21T14:04:24;6.40;99.90
15259;DHT22;34462;51.368;12.364;2023-11-21T14:07:21;6.40;99.90
15259;DHT22;34462;51.368;12.364;2023-11-21T14:09:59;6.40;99.90
15259;DHT22;34462;51.368;12.364;2023-11-21T14:12:28;6.40;99.90
15259;DHT22;34462;51.368;12.364;2023-11-21T14:15:05;6.40;99.90
15259;DHT22;34462;51.368;12.364;2023-11-21T14:17:40;6.50;99.90
15259;DHT22;34462;51.368;12.364;2023-11-21T14:20:13;6.50;99.90
15259;DHT22;34462;51.368;12.364;2023-11-21T14:22:43;6.50;99.90
15259;DHT22;34462;51.368;12.364;2023-11-21T14:25:12;6.50;99.90
15259;DHT22;34462;51.368;12.364;2023-11-21T14:27:41;6.40;99.90
15259;DHT22;34462;51.368;12.364;2023-11-21T14:30:10;6.30;99.90
15259;DHT22;34462;51.368;12.364;2023-11-21T14:32:41;6.30;99.90
15259;DHT22;34462;51.368;12.364;2023-11-21T14:35:10;6.30;99.90
15259;DHT22;34462;51.368;12.364;2023-11-21T14:37:38;6.20;99.90
15259;DHT22;34462;51.368;12.364;2023-11-21T14:40:07;6.10;99.90
15259;DHT22;34462;51.368;12.364;2023-11-21T14:42:38;6.20;99.90
15259;DHT22;34462;51.368;12.364;2023-11-21T14:45:08;6.10;99.90
15259;DHT22;34462;51.368;12.364;2023-11-21T14:47:44;6.00;99.90
15259;DHT22;34462;51.368;12.364;2023-11-21T14:50:21;6.10;99.90
15259;DHT22;34462;51.368;12.364;2023-11-21T14:53:06;6.10;99.90
15259;DHT22;34462;51.368;12.364;2023-11-21T14:55:36;6.10;99.90
15259;DHT22;34462;51.368;12.364;2023-11-21T14:58:19;6.00;99.90
15259;DHT22;34462;51.368;12.364;2023-11-21T15:00:54;6.00;99.90
15259;DHT22;34462;51.368;12.364;2023-11-21T15:03:27;6.00;99.90
15259;DHT22;34462;51.368;12.364;2023-11-21T15:06:10;5.90;99.90
15259;DHT22;34462;51.368;12.364;2023-11-21T15:08:54;6.00;99.90
15259;DHT22;34462;51.368;12.364;2023-11-21T15:11:43;6.10;99.90
15259;DHT22;34462;51.368;12.364;2023-11-21T15:14:13;6.10;99.90
15259;DHT22;34462;51.368;12.364;2023-11-21T15:16:47;6.00;99.90
15259;DHT22;34462;51.368;12.364;2023-11-21T15:19:20;6.10;99.90
15259;DHT22;34462;51.368;12.364;2023-11-21T15:21:53;6.10;99.90
15259;DHT22;34462;51.368;12.364;2023-11-21T15:24:21;6.10;99.90
15259;DHT22;34462;51.368;12.364;2023-11-21T15:26:49;5.90;99.90
15259;DHT22;34462;51.368;12.364;2023-11-21T15:29:18;5.90;99.90
15259;DHT22;34462;51.368;12.364;2023-11-21T15:31:48;5.90;99.90
15259;DHT22;34462;51.368;12.364;2023-11-21T15:34:16;5.90;99.90
15259;DHT22;34462;51.368;12.364;2023-11-21T15:36:46;5.90;99.90
15259;DHT22;34462;51.368;12.364;2023-11-21T15:39:16;5.90;99.90
15259;DHT22;34462;51.368;12.364;2023-11-21T15:41:44;5.90;99.90
15259;DHT22;34462;51.368;12.364;2023-11-21T15:44:13;5.90;99.90
15259;DHT22;34462;51.368;12.364;2023-11-21T15:46:41;5.90;99.90
15259;DHT22;34462;51.368;12.364;2023-11-21T15:49:10;5.90;99.90